Time;durP1;ratioP1;P1;durP2;ratioP2;P2;SDS_P1;SDS_P2;PMS_P1;PMS_P2;Temp;Humidity;BMP_temperature;BMP_pressure;BME280_temperature;BME280_humidity;BME280_pressure;Samples;Min_cycle;Max_cycle;Signal;HPM_P1;HPM_P2
2021/05/10 00:02:10;;;;;;;10.25;5.60;;;;;;;;;;5081848;28;20509;-68
2021/05/10 00:04:36;;;;;;;11.63;5.72;;;;;;;;;;5081313;28;20040;-68
2021/05/10 00:07:02;;;;;;;8.98;4.95;;;;;;;;;;5074226;28;20043;-68
2021/05/10 00:09:28;;;;;;;8.48;5.38;;;;;;;;;;5087579;28;20046;-68
2021/05/10 00:11:54;;;;;;;6.35;4.45;;;;;;;;;;5077991;28;20024;-68
2021/05/10 00:14:37;;;;;;;8.32;4.35;;;;;;;;;;5071601;28;20039;-67
2021/05/10 00:17:03;;;;;;;10.07;4.10;;;;;;;;;;5088169;28;20028;-68
2021/05/10 00:19:29;;;;;;;9.45;4.25;;;;;;;;;;5081086;28;20032;-68
2021/05/10 00:21:55;;;;;;;9.18;4.32;;;;;;;;;;5053748;28;20040;-68
2021/05/10 00:24:22;;;;;;;12.23;3.95;;;;;;;;;;5089076;28;20043;-68
2021/05/10 00:26:48;;;;;;;9.05;4.28;;;;;;;;;;5084481;28;20032;-68
2021/05/10 00:29:17;;;;;;;12.43;5.55;;;;;;;;;;5073692;28;20100;-68
2021/05/10 00:31:44;;;;;;;10.40;4.00;;;;;;;;;;5086303;28;20587;-67
2021/05/10 00:34:10;;;;;;;8.63;4.00;;;;;;;;;;5088708;28;20027;-68
2021/05/10 00:36:36;;;;;;;8.07;4.03;;;;;;;;;;5072061;28;20097;-68
2021/05/10 00:39:03;;;;;;;6.82;4.10;;;;;;;;;;5080390;28;20568;-67
2021/05/10 00:41:29;;;;;;;10.00;4.22;;;;;;;;;;5083017;28;20032;-67
2021/05/10 00:43:55;;;;;;;10.90;4.22;;;;;;;;;;5074586;28;20178;-67
2021/05/10 00:46:21;;;;;;;10.95;4.53;;;;;;;;;;5090748;28;20077;-67
2021/05/10 00:48:47;;;;;;;9.40;4.93;;;;;;;;;;5086954;28;20016;-68
2021/05/10 00:51:13;;;;;;;8.75;4.70;;;;;;;;;;5069978;28;20036;-68
2021/05/10 00:53:39;;;;;;;15.68;5.07;;;;;;;;;;5079365;28;20035;-67
2021/05/10 00:56:05;;;;;;;11.82;6.00;;;;;;;;;;5087814;28;20024;-67
2021/05/10 00:58:32;;;;;;;8.77;4.50;;;;;;;;;;5082577;28;20029;-67
2021/05/10 01:00:59;;;;;;;10.95;5.05;;;;;;;;;;5087177;28;20047;-67
2021/05/10 01:03:25;;;;;;;8.60;5.07;;;;;;;;;;5092992;28;20027;-68
2021/05/10 01:05:51;;;;;;;9.02;4.57;;;;;;;;;;5093323;28;20024;-68
2021/05/10 01:08:17;;;;;;;11.32;4.40;;;;;;;;;;5087191;28;20046;-68
2021/05/10 01:10:45;;;;;;;7.43;3.85;;;;;;;;;;5090785;28;20020;-68
2021/05/10 01:13:11;;;;;;;7.75;3.67;;;;;;;;;;5066268;28;20029;-68
2021/05/10 01:15:37;;;;;;;10.40;4.22;;;;;;;;;;5092716;28;20566;-68
2021/05/10 01:18:03;;;;;;;11.70;4.90;;;;;;;;;;5088102;28;20115;-67
2021/05/10 01:20:29;;;;;;;7.85;4.07;;;;;;;;;;5071988;28;20031;-68
2021/05/10 01:22:56;;;;;;;14.10;5.10;;;;;;;;;;5083784;28;20039;-67
2021/05/10 01:25:24;;;;;;;9.38;4.72;;;;;;;;;;5083534;28;20028;-67
2021/05/10 01:27:50;;;;;;;15.30;5.53;;;;;;;;;;5089850;28;20031;-68
2021/05/10 01:30:21;;;;;;;11.88;5.35;;;;;;;;;;5080253;28;20036;-67
2021/05/10 01:32:48;;;;;;;8.82;4.57;;;;;;;;;;5082245;28;20023;-67
2021/05/10 01:35:16;;;;;;;11.23;5.00;;;;;;;;;;5081446;28;20122;-68
2021/05/10 01:37:42;;;;;;;8.98;4.65;;;;;;;;;;5079929;28;20089;-68
2021/05/10 01:40:08;;;;;;;8.48;5.07;;;;;;;;;;5090078;28;20503;-68
2021/05/10 01:42:35;;;;;;;10.95;4.75;;;;;;;;;;5092667;28;20109;-67
2021/05/10 01:45:01;;;;;;;10.20;4.85;;;;;;;;;;5090854;28;20024;-67
2021/05/10 01:47:27;;;;;;;11.77;5.10;;;;;;;;;;5090590;28;20024;-67
2021/05/10 01:49:53;;;;;;;13.07;5.32;;;;;;;;;;5074780;28;20025;-67
2021/05/10 01:52:20;;;;;;;12.32;5.03;;;;;;;;;;5081481;28;20024;-67
2021/05/10 01:54:53;;;;;;;9.25;4.97;;;;;;;;;;5088601;28;20036;-67
2021/05/10 01:57:19;;;;;;;8.98;5.05;;;;;;;;;;5091946;28;20032;-67
2021/05/10 01:59:45;;;;;;;9.80;5.18;;;;;;;;;;5087693;28;20066;-67
2021/05/10 02:02:12;;;;;;;11.25;5.07;;;;;;;;;;5089934;28;20024;-67
2021/05/10 02:04:56;;;;;;;9.40;5.47;;;;;;;;;;5091140;28;20055;-67
2021/05/10 02:07:22;;;;;;;10.25;5.05;;;;;;;;;;5090630;28;20071;-67
2021/05/10 02:09:49;;;;;;;12.90;5.13;;;;;;;;;;5072134;28;20024;-67
2021/05/10 02:12:15;;;;;;;9.80;5.00;;;;;;;;;;5086327;28;20020;-67
2021/05/10 02:14:41;;;;;;;10.57;5.43;;;;;;;;;;5091664;28;20024;-67
2021/05/10 02:17:07;;;;;;;11.15;6.28;;;;;;;;;;5087807;28;20051;-67
2021/05/10 02:19:35;;;;;;;12.75;4.82;;;;;;;;;;5065649;28;20028;-67
2021/05/10 02:22:01;;;;;;;11.80;5.18;;;;;;;;;;5091014;28;20507;-67
2021/05/10 02:24:27;;;;;;;11.60;5.25;;;;;;;;;;5077428;28;20024;-68
2021/05/10 02:26:53;;;;;;;11.70;5.05;;;;;;;;;;5081407;28;20046;-67
2021/05/10 02:29:19;;;;;;;10.95;4.72;;;;;;;;;;5089561;28;20019;-67
2021/05/10 02:31:46;;;;;;;11.43;5.30;;;;;;;;;;5091453;28;20028;-67
2021/05/10 02:34:13;;;;;;;10.07;4.22;;;;;;;;;;5080859;28;20024;-66
2021/05/10 02:36:39;;;;;;;12.07;5.18;;;;;;;;;;5087303;28;20105;-66
2021/05/10 02:39:05;;;;;;;12.45;4.85;;;;;;;;;;5089690;28;20024;-67
2021/05/10 02:41:31;;;;;;;10.02;5.13;;;;;;;;;;5076512;28;20110;-66
2021/05/10 02:43:57;;;;;;;10.40;4.88;;;;;;;;;;5091122;28;20032;-67
2021/05/10 02:46:23;;;;;;;9.40;4.80;;;;;;;;;;5089572;28;20086;-67
2021/05/10 02:48:49;;;;;;;10.05;4.80;;;;;;;;;;5087651;28;20021;-67
2021/05/10 02:51:15;;;;;;;10.65;4.55;;;;;;;;;;5091338;28;20064;-67
2021/05/10 02:53:41;;;;;;;10.98;4.63;;;;;;;;;;5089274;28;20103;-67
2021/05/10 02:56:07;;;;;;;11.27;4.75;;;;;;;;;;5073487;28;20035;-67
2021/05/10 02:58:33;;;;;;;8.70;3.80;;;;;;;;;;5085107;28;20016;-66
2021/05/10 03:00:59;;;;;;;9.55;4.43;;;;;;;;;;5090680;28;20040;-67
2021/05/10 03:03:26;;;;;;;10.30;4.28;;;;;;;;;;5068020;28;20036;-67
2021/05/10 03:05:52;;;;;;;7.57;4.35;;;;;;;;;;5089621;28;20031;-68
2021/05/10 03:08:18;;;;;;;11.30;4.70;;;;;;;;;;5089186;28;20024;-67
2021/05/10 03:10:44;;;;;;;11.85;4.50;;;;;;;;;;5080678;28;20021;-67
2021/05/10 03:13:10;;;;;;;12.18;3.90;;;;;;;;;;5091175;28;20074;-67
2021/05/10 03:15:36;;;;;;;6.20;3.88;;;;;;;;;;5089294;28;20027;-67
2021/05/10 03:18:02;;;;;;;7.45;3.88;;;;;;;;;;5069536;28;20024;-67
2021/05/10 03:20:29;;;;;;;9.90;4.75;;;;;;;;;;5083574;28;20074;-66
2021/05/10 03:22:56;;;;;;;9.23;4.95;;;;;;;;;;5090901;28;20027;-67
2021/05/10 03:25:22;;;;;;;13.65;5.38;;;;;;;;;;5068714;28;20024;-70
2021/05/10 03:27:52;;;;;;;17.50;6.45;;;;;;;;;;5080446;28;20415;-72
2021/05/10 03:30:22;;;;;;;20.17;7.00;;;;;;;;;;5088654;28;20024;-70
2021/05/10 03:32:49;;;;;;;15.32;7.05;;;;;;;;;;5079618;28;20028;-72
2021/05/10 03:35:15;;;;;;;17.92;6.70;;;;;;;;;;5063882;28;20020;-71
2021/05/10 03:37:42;;;;;;;14.27;6.78;;;;;;;;;;5081224;28;20027;-72
2021/05/10 03:40:09;;;;;;;18.00;7.50;;;;;;;;;;5087663;28;20404;-75
2021/05/10 03:42:35;;;;;;;18.48;6.82;;;;;;;;;;5087449;28;20032;-74
2021/05/10 03:45:01;;;;;;;14.30;6.55;;;;;;;;;;5090420;28;20544;-73
2021/05/10 03:48:01;;;;;;;16.70;6.72;;;;;;;;;;5089669;28;20032;-72
2021/05/10 03:50:21;;;;;;;18.05;7.40;;;;;;;;;;5072822;28;20139;-75
2021/05/10 03:52:48;;;;;;;15.02;6.85;;;;;;;;;;5088847;28;20107;-73
2021/05/10 03:55:15;;;;;;;17.77;5.82;;;;;;;;;;5076467;28;20035;-77
2021/05/10 03:57:41;;;;;;;10.95;6.15;;;;;;;;;;5068421;28;20038;-77
2021/05/10 04:00:09;;;;;;;20.02;6.82;;;;;;;;;;5080369;28;20042;-75
2021/05/10 04:02:35;;;;;;;11.25;5.80;;;;;;;;;;5089296;28;20028;-76
2021/05/10 04:08:39;;;;;;;13.68;5.75;;;;;;;;;;5083132;28;20032;-77
2021/05/10 04:15:33;;;;;;;14.13;5.50;;;;;;;;;;5078349;28;20071;-72
2021/05/10 04:18:00;;;;;;;14.02;5.57;;;;;;;;;;5069315;28;20624;-71
2021/05/10 04:20:26;;;;;;;10.82;4.20;;;;;;;;;;5092070;28;20044;-71
2021/05/10 04:22:52;;;;;;;12.32;4.13;;;;;;;;;;5093496;28;20069;-70
2021/05/10 04:25:18;;;;;;;10.88;4.43;;;;;;;;;;5093053;28;20020;-71
2021/05/10 04:27:46;;;;;;;7.13;4.07;;;;;;;;;;5093493;28;20111;-69
2021/05/10 04:30:12;;;;;;;14.07;4.47;;;;;;;;;;5087045;28;20103;-70
2021/05/10 04:32:38;;;;;;;8.40;4.45;;;;;;;;;;5075120;28;20024;-69
2021/05/10 04:35:04;;;;;;;6.18;3.08;;;;;;;;;;5093578;28;20111;-70
2021/05/10 04:37:30;;;;;;;5.80;3.22;;;;;;;;;;5092700;28;20141;-70
2021/05/10 04:39:57;;;;;;;9.82;3.35;;;;;;;;;;5088609;28;20238;-68
2021/05/10 04:42:23;;;;;;;6.97;3.80;;;;;;;;;;5088387;28;20495;-70
2021/05/10 04:44:50;;;;;;;6.18;3.33;;;;;;;;;;5093813;28;20512;-70
2021/05/10 04:47:16;;;;;;;8.75;3.88;;;;;;;;;;5092412;28;20336;-70
2021/05/10 04:49:42;;;;;;;9.68;3.92;;;;;;;;;;5073579;28;20683;-70
2021/05/10 04:52:08;;;;;;;8.75;3.95;;;;;;;;;;5088607;28;20217;-70
2021/05/10 04:54:34;;;;;;;7.18;3.80;;;;;;;;;;5087890;28;20017;-70
2021/05/10 04:57:00;;;;;;;7.20;3.60;;;;;;;;;;5092184;28;20020;-69
2021/05/10 04:59:26;;;;;;;5.35;3.33;;;;;;;;;;5083152;28;20040;-69
2021/05/10 05:01:52;;;;;;;7.80;3.38;;;;;;;;;;5091312;28;20596;-69
2021/05/10 05:04:18;;;;;;;6.95;3.60;;;;;;;;;;5088848;28;20062;-70
2021/05/10 05:06:44;;;;;;;7.63;4.40;;;;;;;;;;5093186;28;20499;-70
2021/05/10 05:09:10;;;;;;;7.72;4.22;;;;;;;;;;5092054;28;20502;-69
2021/05/10 05:11:36;;;;;;;7.47;3.55;;;;;;;;;;5092873;28;20544;-69
2021/05/10 05:14:02;;;;;;;8.25;4.68;;;;;;;;;;5088770;28;20020;-69
2021/05/10 05:16:30;;;;;;;9.55;3.88;;;;;;;;;;5082986;28;20050;-69
2021/05/10 05:18:56;;;;;;;8.32;4.03;;;;;;;;;;5062082;28;20024;-70
2021/05/10 05:21:22;;;;;;;8.27;4.25;;;;;;;;;;5092183;28;20032;-69
2021/05/10 05:23:49;;;;;;;9.13;4.13;;;;;;;;;;5091962;28;20024;-69
2021/05/10 05:26:15;;;;;;;8.85;4.32;;;;;;;;;;5087343;28;20047;-70
2021/05/10 05:28:41;;;;;;;11.05;5.18;;;;;;;;;;5072033;28;20024;-68
2021/05/10 05:31:07;;;;;;;12.35;5.18;;;;;;;;;;5075430;28;20479;-68
2021/05/10 05:33:33;;;;;;;12.43;5.22;;;;;;;;;;5086347;28;20020;-68
2021/05/10 05:35:59;;;;;;;9.82;5.90;;;;;;;;;;5083125;28;20028;-68
2021/05/10 05:38:27;;;;;;;10.93;6.22;;;;;;;;;;5081646;28;20024;-69
2021/05/10 05:40:53;;;;;;;11.32;6.05;;;;;;;;;;5084615;28;20077;-71
2021/05/10 05:43:19;;;;;;;9.90;4.72;;;;;;;;;;5076617;28;20547;-71
2021/05/10 05:45:45;;;;;;;10.88;4.97;;;;;;;;;;5085282;28;20032;-72
2021/05/10 05:48:11;;;;;;;7.30;3.28;;;;;;;;;;5092761;28;20035;-71
2021/05/10 05:50:38;;;;;;;11.45;4.20;;;;;;;;;;5091432;28;20111;-73
2021/05/10 05:53:04;;;;;;;13.60;4.47;;;;;;;;;;5081180;28;20039;-66
2021/05/10 05:55:31;;;;;;;9.45;4.32;;;;;;;;;;5075904;28;20031;-69
2021/05/10 05:58:00;;;;;;;12.10;3.60;;;;;;;;;;5072277;28;20028;-68
2021/05/10 06:00:26;;;;;;;15.30;4.97;;;;;;;;;;5090655;28;20068;-69
2021/05/10 06:02:53;;;;;;;14.70;5.03;;;;;;;;;;5092680;28;20085;-71
2021/05/10 06:05:19;;;;;;;18.10;6.65;;;;;;;;;;5092367;28;20024;-70
2021/05/10 06:07:46;;;;;;;20.95;6.10;;;;;;;;;;5088778;28;20032;-70
2021/05/10 06:10:13;;;;;;;18.80;6.35;;;;;;;;;;5090558;28;20042;-70
2021/05/10 06:12:41;;;;;;;15.40;6.63;;;;;;;;;;5084889;28;20072;-70
2021/05/10 06:15:08;;;;;;;23.40;6.18;;;;;;;;;;5074293;28;20016;-71
2021/05/10 06:17:36;;;;;;;18.73;6.35;;;;;;;;;;5091608;28;20024;-70
2021/05/10 06:20:06;;;;;;;19.50;5.60;;;;;;;;;;5090465;28;20024;-70
2021/05/10 06:22:32;;;;;;;19.58;6.30;;;;;;;;;;5091849;28;20407;-71
2021/05/10 06:24:58;;;;;;;21.10;8.20;;;;;;;;;;5083925;28;20191;-69
2021/05/10 06:27:24;;;;;;;20.75;6.53;;;;;;;;;;5068320;28;20053;-71
2021/05/10 06:29:50;;;;;;;18.83;5.80;;;;;;;;;;5085767;28;20027;-71
2021/05/10 06:32:16;;;;;;;19.58;6.18;;;;;;;;;;5085175;28;20124;-70
2021/05/10 06:34:43;;;;;;;14.82;5.63;;;;;;;;;;5071432;28;20180;-71
2021/05/10 06:37:09;;;;;;;18.00;5.45;;;;;;;;;;5080684;28;20101;-71
2021/05/10 06:39:35;;;;;;;17.77;6.50;;;;;;;;;;5063769;28;20052;-71
2021/05/10 06:42:01;;;;;;;15.40;6.20;;;;;;;;;;5082132;28;20024;-70
2021/05/10 06:44:27;;;;;;;22.98;6.53;;;;;;;;;;5086126;28;20039;-71
2021/05/10 06:46:53;;;;;;;19.10;6.88;;;;;;;;;;5082208;28;20043;-69
2021/05/10 06:49:19;;;;;;;16.55;7.07;;;;;;;;;;5081862;28;20035;-70
2021/05/10 06:51:45;;;;;;;23.85;7.72;;;;;;;;;;5082133;28;20107;-69
2021/05/10 06:54:11;;;;;;;25.17;7.75;;;;;;;;;;5083542;28;20025;-70
2021/05/10 06:56:37;;;;;;;19.05;7.57;;;;;;;;;;5075787;28;20028;-69
2021/05/10 06:59:03;;;;;;;17.63;7.43;;;;;;;;;;5075059;28;20085;-68
2021/05/10 07:01:29;;;;;;;20.67;7.95;;;;;;;;;;5074895;28;20241;-70
2021/05/10 07:03:55;;;;;;;20.67;8.18;;;;;;;;;;5066768;28;20085;-71
2021/05/10 07:06:21;;;;;;;20.15;6.70;;;;;;;;;;5090860;28;20101;-71
2021/05/10 07:08:47;;;;;;;15.88;6.00;;;;;;;;;;5086407;28;20109;-71
2021/05/10 07:11:13;;;;;;;24.95;6.00;;;;;;;;;;5087840;28;20479;-69
2021/05/10 07:13:39;;;;;;;20.23;7.13;;;;;;;;;;5087957;28;20024;-70
2021/05/10 07:16:07;;;;;;;22.10;7.07;;;;;;;;;;5074381;28;20024;-69
2021/05/10 07:18:33;;;;;;;25.13;6.75;;;;;;;;;;5062372;28;20119;-72
2021/05/10 07:20:59;;;;;;;14.70;6.10;;;;;;;;;;5089118;28;20505;-70
2021/05/10 07:23:25;;;;;;;25.60;6.00;;;;;;;;;;5079117;28;20032;-68
2021/05/10 07:25:51;;;;;;;21.35;6.57;;;;;;;;;;5058300;28;20020;-68
2021/05/10 07:28:19;;;;;;;19.75;6.75;;;;;;;;;;5088872;28;20032;-69
2021/05/10 07:30:45;;;;;;;18.67;6.38;;;;;;;;;;5086429;28;20020;-70
2021/05/10 07:33:11;;;;;;;19.55;6.25;;;;;;;;;;5061493;28;20029;-68
2021/05/10 07:35:38;;;;;;;18.48;5.90;;;;;;;;;;5082632;28;20017;-71
2021/05/10 07:38:04;;;;;;;10.90;4.53;;;;;;;;;;5090078;28;20028;-70
2021/05/10 07:40:31;;;;;;;17.63;5.68;;;;;;;;;;5087158;28;20107;-70
2021/05/10 07:42:57;;;;;;;15.63;5.82;;;;;;;;;;5076100;28;20029;-68
2021/05/10 07:45:23;;;;;;;16.73;4.38;;;;;;;;;;5089527;28;20044;-73
2021/05/10 07:47:52;;;;;;;15.15;4.45;;;;;;;;;;5090084;28;20028;-69
2021/05/10 07:50:19;;;;;;;17.33;4.90;;;;;;;;;;5080745;28;20213;-68
2021/05/10 07:52:45;;;;;;;20.40;4.93;;;;;;;;;;5078765;28;20020;-68
2021/05/10 07:55:11;;;;;;;14.45;5.20;;;;;;;;;;5084186;28;20071;-67
2021/05/10 07:57:37;;;;;;;19.42;5.53;;;;;;;;;;5086712;28;20032;-69
2021/05/10 08:00:12;;;;;;;12.77;5.32;;;;;;;;;;5081963;28;20044;-68
2021/05/10 08:02:38;;;;;;;14.40;4.95;;;;;;;;;;5088745;28;20030;-67
2021/05/10 08:05:05;;;;;;;14.18;5.60;;;;;;;;;;5087011;28;20024;-68
2021/05/10 08:07:31;;;;;;;15.80;5.22;;;;;;;;;;5089096;28;20063;-67
2021/05/10 08:09:57;;;;;;;18.45;4.68;;;;;;;;;;5090127;28;20016;-68
2021/05/10 08:12:23;;;;;;;13.80;4.57;;;;;;;;;;5081498;28;20154;-67
2021/05/10 08:14:49;;;;;;;12.32;4.68;;;;;;;;;;5084032;28;20017;-67
2021/05/10 08:17:15;;;;;;;15.55;4.57;;;;;;;;;;5077677;28;20024;-67
2021/05/10 08:19:41;;;;;;;16.02;3.85;;;;;;;;;;5070331;28;20520;-67
2021/05/10 08:22:08;;;;;;;15.70;3.80;;;;;;;;;;5077310;28;20158;-67
2021/05/10 08:24:34;;;;;;;14.05;4.20;;;;;;;;;;5085472;28;20035;-68
2021/05/10 08:27:00;;;;;;;16.88;4.22;;;;;;;;;;5078941;28;20037;-67
2021/05/10 08:29:26;;;;;;;12.18;3.72;;;;;;;;;;5075960;28;20025;-68
2021/05/10 08:31:53;;;;;;;14.27;4.15;;;;;;;;;;5090830;28;20525;-67
2021/05/10 08:34:20;;;;;;;12.07;3.65;;;;;;;;;;5079409;28;20033;-67
2021/05/10 08:36:46;;;;;;;13.88;3.67;;;;;;;;;;5087331;28;20441;-67
2021/05/10 08:39:12;;;;;;;16.35;3.63;;;;;;;;;;5077255;28;20379;-68
2021/05/10 08:41:39;;;;;;;17.75;3.85;;;;;;;;;;5080580;28;20491;-69
2021/05/10 08:44:05;;;;;;;14.80;3.70;;;;;;;;;;5092105;28;20028;-68
2021/05/10 08:46:32;;;;;;;11.55;3.00;;;;;;;;;;5093598;28;20445;-68
2021/05/10 08:48:58;;;;;;;16.40;3.58;;;;;;;;;;5087524;28;20024;-68
2021/05/10 08:51:25;;;;;;;15.05;3.83;;;;;;;;;;5074702;28;20032;-68
2021/05/10 08:53:51;;;;;;;15.77;3.20;;;;;;;;;;5070043;28;20591;-68
2021/05/10 08:56:17;;;;;;;9.90;3.13;;;;;;;;;;5071209;28;20119;-67
2021/05/10 08:58:44;;;;;;;15.95;2.85;;;;;;;;;;5088243;28;20027;-67
2021/05/10 09:01:11;;;;;;;13.13;2.70;;;;;;;;;;5086620;28;20510;-67
2021/05/10 09:03:43;;;;;;;12.77;3.28;;;;;;;;;;5054504;28;20029;-67
2021/05/10 09:06:13;;;;;;;12.20;3.55;;;;;;;;;;5082460;28;20530;-68
2021/05/10 09:08:40;;;;;;;12.25;3.63;;;;;;;;;;5082440;28;20016;-67
2021/05/10 09:11:15;;;;;;;12.40;2.97;;;;;;;;;;5080607;28;20020;-68
2021/05/10 09:13:54;;;;;;;15.02;3.05;;;;;;;;;;5081880;28;20099;-68
2021/05/10 09:16:21;;;;;;;12.48;2.90;;;;;;;;;;5083137;28;20040;-68
2021/05/10 09:18:53;;;;;;;13.38;2.92;;;;;;;;;;5077018;28;20365;-68
2021/05/10 09:21:29;;;;;;;14.07;2.97;;;;;;;;;;5083649;28;20054;-68
2021/05/10 09:23:56;;;;;;;11.38;2.92;;;;;;;;;;5080460;28;20151;-68
2021/05/10 09:26:29;;;;;;;15.20;2.95;;;;;;;;;;5082034;28;20025;-68
2021/05/10 09:28:55;;;;;;;17.98;3.15;;;;;;;;;;5072387;28;20203;-68
2021/05/10 09:31:21;;;;;;;17.23;3.05;;;;;;;;;;5088004;28;20086;-68
2021/05/10 09:33:48;;;;;;;11.02;2.85;;;;;;;;;;5078754;28;20025;-69
2021/05/10 09:36:33;;;;;;;15.30;3.67;;;;;;;;;;5074521;28;20070;-68
2021/05/10 09:39:00;;;;;;;10.00;2.80;;;;;;;;;;5089064;28;20534;-68
2021/05/10 09:41:27;;;;;;;12.60;3.03;;;;;;;;;;5086636;28;20085;-69
2021/05/10 09:44:07;;;;;;;9.30;2.70;;;;;;;;;;5062603;28;20034;-68
2021/05/10 09:46:46;;;;;;;9.05;2.45;;;;;;;;;;5076837;28;20108;-68
2021/05/10 09:49:13;;;;;;;14.45;3.20;;;;;;;;;;5074478;28;20074;-68
2021/05/10 09:51:39;;;;;;;10.73;3.22;;;;;;;;;;5074750;28;20020;-69
2021/05/10 09:54:13;;;;;;;16.80;3.20;;;;;;;;;;5088227;28;20035;-71
2021/05/10 09:56:39;;;;;;;16.00;3.33;;;;;;;;;;5054227;28;20027;-69
2021/05/10 09:59:13;;;;;;;14.65;3.75;;;;;;;;;;5073832;28;20125;-67
2021/05/10 10:01:40;;;;;;;13.30;3.47;;;;;;;;;;5063887;28;20033;-68
2021/05/10 10:04:06;;;;;;;13.45;3.05;;;;;;;;;;5072007;28;20086;-67
2021/05/10 10:06:32;;;;;;;11.43;3.05;;;;;;;;;;5077129;28;20475;-68
2021/05/10 10:08:59;;;;;;;17.77;3.63;;;;;;;;;;5086033;28;20530;-67
2021/05/10 10:11:25;;;;;;;11.15;2.85;;;;;;;;;;5082166;28;20051;-68
2021/05/10 10:13:52;;;;;;;13.05;3.10;;;;;;;;;;5086358;28;20015;-68
2021/05/10 10:16:23;;;;;;;9.40;2.70;;;;;;;;;;5067532;28;20474;-67
2021/05/10 10:18:49;;;;;;;8.13;2.58;;;;;;;;;;5064602;28;20032;-67
2021/05/10 10:21:17;;;;;;;15.73;3.17;;;;;;;;;;5092100;28;20457;-70
2021/05/10 10:23:45;;;;;;;10.57;2.30;;;;;;;;;;5076967;28;20025;-68
2021/05/10 10:26:14;;;;;;;10.27;2.60;;;;;;;;;;5076569;28;20501;-69
2021/05/10 10:28:40;;;;;;;7.13;2.28;;;;;;;;;;5089249;28;20103;-69
2021/05/10 10:31:07;;;;;;;11.20;3.17;;;;;;;;;;5090763;28;20025;-69
2021/05/10 10:33:36;;;;;;;14.35;3.25;;;;;;;;;;5083467;28;20080;-70
2021/05/10 10:36:03;;;;;;;16.75;3.90;;;;;;;;;;5091881;28;20446;-68
2021/05/10 10:38:31;;;;;;;12.77;3.03;;;;;;;;;;5079592;28;20028;-69
2021/05/10 10:41:15;;;;;;;12.55;3.47;;;;;;;;;;5080371;28;20104;-68
2021/05/10 10:43:41;;;;;;;12.18;3.25;;;;;;;;;;5072181;28;20025;-69
2021/05/10 10:46:17;;;;;;;13.05;4.00;;;;;;;;;;5083509;28;20082;-69
2021/05/10 10:48:44;;;;;;;14.32;4.30;;;;;;;;;;5083613;28;20539;-71
2021/05/10 10:51:12;;;;;;;16.85;4.70;;;;;;;;;;5072765;28;20017;-70
2021/05/10 10:53:49;;;;;;;15.57;3.78;;;;;;;;;;5090712;28;20020;-69
2021/05/10 10:56:15;;;;;;;10.07;2.50;;;;;;;;;;5085338;28;20028;-69
2021/05/10 10:58:43;;;;;;;9.38;2.42;;;;;;;;;;5081454;28;20373;-70
2021/05/10 11:01:12;;;;;;;10.48;3.03;;;;;;;;;;5078751;28;20101;-71
2021/05/10 11:03:39;;;;;;;9.77;2.72;;;;;;;;;;5083070;28;20522;-70
2021/05/10 11:06:06;;;;;;;13.75;3.70;;;;;;;;;;5070722;28;20024;-71
2021/05/10 11:08:45;;;;;;;14.85;3.72;;;;;;;;;;5069636;28;20025;-71
2021/05/10 11:11:12;;;;;;;11.43;2.13;;;;;;;;;;5071349;28;20020;-71
2021/05/10 11:13:39;;;;;;;10.40;2.40;;;;;;;;;;5076745;28;20487;-70
2021/05/10 11:16:14;;;;;;;12.07;2.45;;;;;;;;;;5090732;28;20048;-70
2021/05/10 11:18:48;;;;;;;9.45;2.25;;;;;;;;;;5088162;28;20020;-70
2021/05/10 11:21:24;;;;;;;8.85;1.83;;;;;;;;;;5091126;28;20070;-71
2021/05/10 11:23:51;;;;;;;14.80;2.35;;;;;;;;;;5089086;28;20027;-70
2021/05/10 11:26:36;;;;;;;9.18;1.80;;;;;;;;;;5082539;28;20118;-71
2021/05/10 11:29:02;;;;;;;7.07;1.92;;;;;;;;;;5087783;28;20095;-69
2021/05/10 11:31:33;;;;;;;8.00;1.92;;;;;;;;;;5055168;28;20021;-70
2021/05/10 11:33:59;;;;;;;7.05;1.40;;;;;;;;;;5085767;28;20024;-70
2021/05/10 11:36:28;;;;;;;10.63;2.05;;;;;;;;;;5082214;28;20032;-71
2021/05/10 11:38:55;;;;;;;7.72;2.42;;;;;;;;;;5067687;28;20019;-70
2021/05/10 11:41:31;;;;;;;6.50;1.83;;;;;;;;;;5071809;28;20036;-70
2021/05/10 11:43:58;;;;;;;8.85;2.25;;;;;;;;;;5088395;28;20032;-70
2021/05/10 11:46:44;;;;;;;11.45;2.45;;;;;;;;;;5070748;28;20035;-72
2021/05/10 11:49:11;;;;;;;9.73;2.17;;;;;;;;;;5072403;28;20027;-72
2021/05/10 11:51:38;;;;;;;12.05;2.10;;;;;;;;;;5090353;28;20028;-72
2021/05/10 11:54:05;;;;;;;9.85;1.92;;;;;;;;;;5078304;28;20031;-69
2021/05/10 11:56:35;;;;;;;13.13;2.33;;;;;;;;;;5070625;28;20032;-68
2021/05/10 11:59:20;;;;;;;15.10;3.00;;;;;;;;;;5074588;28;20033;-69
2021/05/10 12:01:46;;;;;;;10.32;2.38;;;;;;;;;;5078762;28;20059;-69
2021/05/10 12:04:16;;;;;;;14.32;2.58;;;;;;;;;;5089803;28;20036;-70
2021/05/10 12:06:42;;;;;;;15.73;2.78;;;;;;;;;;5080828;28;20024;-69
2021/05/10 12:09:08;;;;;;;9.60;2.17;;;;;;;;;;5057529;28;20033;-70
2021/05/10 12:11:38;;;;;;;19.13;3.47;;;;;;;;;;5082381;28;20016;-69
2021/05/10 12:14:16;;;;;;;10.15;2.38;;;;;;;;;;5086839;28;20024;-69
2021/05/10 12:17:01;;;;;;;13.23;2.72;;;;;;;;;;5090391;28;20031;-70
2021/05/10 12:19:47;;;;;;;14.10;2.60;;;;;;;;;;5068797;28;20029;-71
2021/05/10 12:22:13;;;;;;;9.30;2.63;;;;;;;;;;5070066;28;20028;-71
2021/05/10 12:24:58;;;;;;;12.52;2.28;;;;;;;;;;5069961;28;20058;-70
2021/05/10 12:27:25;;;;;;;10.90;2.30;;;;;;;;;;5067302;28;20043;-71
2021/05/10 12:29:51;;;;;;;13.02;2.30;;;;;;;;;;5065057;28;20107;-70
2021/05/10 12:32:18;;;;;;;14.23;2.45;;;;;;;;;;5081529;28;20454;-70
2021/05/10 12:34:44;;;;;;;13.60;2.95;;;;;;;;;;5081162;28;20214;-71
2021/05/10 12:37:10;;;;;;;13.07;2.67;;;;;;;;;;5080147;28;20032;-70
2021/05/10 12:39:37;;;;;;;9.30;2.40;;;;;;;;;;5084973;28;20071;-71
2021/05/10 12:42:12;;;;;;;12.82;2.60;;;;;;;;;;5073614;28;20017;-71
2021/05/10 12:44:39;;;;;;;11.23;2.17;;;;;;;;;;5073624;28;20086;-71
2021/05/10 12:47:05;;;;;;;14.27;3.10;;;;;;;;;;5058345;28;20166;-70
2021/05/10 12:49:31;;;;;;;11.30;1.90;;;;;;;;;;5089985;28;20020;-70
2021/05/10 12:51:57;;;;;;;20.25;3.75;;;;;;;;;;5073808;28;20480;-71
2021/05/10 12:54:23;;;;;;;9.25;2.08;;;;;;;;;;5076327;28;20027;-71
2021/05/10 12:56:51;;;;;;;12.77;1.95;;;;;;;;;;5091910;28;20012;-72
2021/05/10 12:59:17;;;;;;;7.40;2.30;;;;;;;;;;5079969;28;20047;-72
2021/05/10 13:01:43;;;;;;;13.52;2.53;;;;;;;;;;5073120;28;20029;-71
2021/05/10 13:04:13;;;;;;;9.45;2.22;;;;;;;;;;5074737;28;20043;-72
2021/05/10 13:06:44;;;;;;;15.30;2.10;;;;;;;;;;5073143;28;20045;-71
2021/05/10 13:09:22;;;;;;;9.00;1.45;;;;;;;;;;5069937;28;20048;-72
2021/05/10 13:11:56;;;;;;;10.65;1.73;;;;;;;;;;5055261;28;20122;-71
2021/05/10 13:14:33;;;;;;;12.88;2.20;;;;;;;;;;5086979;28;20024;-70
2021/05/10 13:17:31;;;;;;;8.80;1.83;;;;;;;;;;5093250;28;20522;-72
2021/05/10 13:31:12;;;;;;;7.70;1.80;;;;;;;;;;5086717;28;20063;-70
2021/05/10 13:36:23;;;;;;;10.45;2.08;;;;;;;;;;5091383;28;20434;-71
2021/05/10 13:38:49;;;;;;;14.68;3.85;;;;;;;;;;5083722;28;20020;-70
2021/05/10 13:41:17;;;;;;;16.08;3.42;;;;;;;;;;5062598;28;20048;-70
2021/05/10 13:46:09;;;;;;;10.23;1.60;;;;;;;;;;5091793;28;20028;-70
2021/05/10 13:48:35;;;;;;;8.30;2.05;;;;;;;;;;5085911;28;20370;-70
2021/05/10 13:51:01;;;;;;;9.18;2.00;;;;;;;;;;5091386;28;20023;-69
2021/05/10 13:53:27;;;;;;;11.10;2.35;;;;;;;;;;5071838;28;20028;-69
2021/05/10 13:55:53;;;;;;;6.97;1.80;;;;;;;;;;5079467;28;20032;-71
2021/05/10 13:58:20;;;;;;;8.38;1.73;;;;;;;;;;5084626;28;20016;-70
2021/05/10 14:00:46;;;;;;;13.73;2.20;;;;;;;;;;5086684;28;20581;-70
2021/05/10 14:03:12;;;;;;;9.07;1.42;;;;;;;;;;5065452;28;20042;-70
2021/05/10 14:05:38;;;;;;;13.10;1.55;;;;;;;;;;5090746;28;20020;-70
2021/05/10 14:08:04;;;;;;;11.32;1.90;;;;;;;;;;5091075;28;20028;-71
2021/05/10 14:10:31;;;;;;;8.07;1.52;;;;;;;;;;5076723;28;20103;-69
2021/05/10 14:12:57;;;;;;;14.73;3.38;;;;;;;;;;5091739;28;20028;-70
2021/05/10 14:15:23;;;;;;;6.95;2.28;;;;;;;;;;5071577;28;20029;-69
2021/05/10 14:17:50;;;;;;;6.40;1.30;;;;;;;;;;5080275;28;20414;-69
2021/05/10 14:20:19;;;;;;;11.25;1.80;;;;;;;;;;5083703;28;20036;-70
2021/05/10 14:22:45;;;;;;;7.00;1.42;;;;;;;;;;5084319;28;20171;-69
2021/05/10 14:25:12;;;;;;;6.72;1.70;;;;;;;;;;5087693;28;20054;-71
2021/05/10 14:27:38;;;;;;;15.05;2.63;;;;;;;;;;5057242;28;20032;-70
2021/05/10 14:30:05;;;;;;;12.07;2.60;;;;;;;;;;5055990;28;20028;-71
2021/05/10 14:32:31;;;;;;;11.98;2.03;;;;;;;;;;5091405;28;20024;-70
2021/05/10 14:34:57;;;;;;;8.93;1.77;;;;;;;;;;5075369;28;20095;-70
2021/05/10 14:37:23;;;;;;;11.27;2.28;;;;;;;;;;5067891;28;20024;-70
2021/05/10 14:39:49;;;;;;;16.98;3.67;;;;;;;;;;5082713;28;20054;-70
2021/05/10 14:42:18;;;;;;;11.68;3.15;;;;;;;;;;5089064;28;20032;-70
2021/05/10 14:44:44;;;;;;;10.27;2.17;;;;;;;;;;5088876;28;20028;-71
2021/05/10 14:47:10;;;;;;;11.23;2.75;;;;;;;;;;5090013;28;20070;-71
2021/05/10 14:49:36;;;;;;;13.27;2.58;;;;;;;;;;5080774;28;20032;-71
2021/05/10 14:52:03;;;;;;;12.88;2.90;;;;;;;;;;5089035;28;20084;-71
2021/05/10 14:54:29;;;;;;;15.65;2.58;;;;;;;;;;5083611;28;20027;-70
2021/05/10 14:56:55;;;;;;;14.27;2.33;;;;;;;;;;5089831;28;20039;-71
2021/05/10 14:59:21;;;;;;;10.38;2.60;;;;;;;;;;5085163;28;20067;-71
2021/05/10 15:01:47;;;;;;;13.07;2.75;;;;;;;;;;5069204;28;20380;-70